Time;durP1;ratioP1;P1;durP2;ratioP2;P2;SDS_P1;SDS_P2;PMS_P1;PMS_P2;Temp;Humidity;BMP_temperature;BMP_pressure;BME280_temperature;BME280_humidity;BME280_pressure;Samples;Min_cycle;Max_cycle;Signal;HPM_P1;HPM_P2
2022/12/13 00:01:21;;;;;;;12.43;8.98;;;;;;;;;;5055054;28;20300;-86
2022/12/13 00:03:48;;;;;;;15.13;10.02;;;;;;;;;;5054928;28;20210;-86
2022/12/13 00:06:16;;;;;;;14.80;8.02;;;;;;;;;;5055550;28;20216;-89
2022/12/13 00:08:45;;;;;;;11.70;8.20;;;;;;;;;;5054696;28;20288;-87
2022/12/13 00:11:15;;;;;;;10.48;8.15;;;;;;;;;;5055025;28;20287;-86
2022/12/13 00:13:45;;;;;;;13.70;8.25;;;;;;;;;;5055480;28;20229;-87
2022/12/13 00:16:15;;;;;;;15.13;9.10;;;;;;;;;;5055901;28;20198;-86
2022/12/13 00:18:42;;;;;;;11.80;8.90;;;;;;;;;;5054340;28;20204;-86
2022/12/13 00:21:13;;;;;;;11.95;9.38;;;;;;;;;;5054395;28;20225;-86
2022/12/13 00:23:40;;;;;;;13.88;8.20;;;;;;;;;;5054062;28;20206;-86
2022/12/13 00:26:13;;;;;;;11.60;8.43;;;;;;;;;;5054232;28;20225;-86
2022/12/13 00:28:42;;;;;;;11.70;7.60;;;;;;;;;;5053275;28;20186;-86
2022/12/13 00:31:10;;;;;;;11.73;7.18;;;;;;;;;;5053744;28;20225;-86
2022/12/13 00:33:38;;;;;;;11.18;7.22;;;;;;;;;;5053634;28;20221;-86
2022/12/13 00:36:09;;;;;;;18.35;10.10;;;;;;;;;;5053992;28;20649;-86
2022/12/13 00:38:37;;;;;;;15.40;9.20;;;;;;;;;;5053823;28;20186;-87
2022/12/13 00:41:13;;;;;;;13.60;8.90;;;;;;;;;;5053841;28;20659;-87
2022/12/13 00:43:41;;;;;;;17.75;10.77;;;;;;;;;;5055670;28;20208;-86
2022/12/13 00:46:13;;;;;;;16.60;9.80;;;;;;;;;;5053902;28;20198;-87
2022/12/13 00:48:41;;;;;;;15.25;10.50;;;;;;;;;;5053320;28;20273;-87
2022/12/13 00:51:09;;;;;;;14.18;8.80;;;;;;;;;;5053672;28;20304;-87
2022/12/13 00:53:37;;;;;;;9.13;6.88;;;;;;;;;;5053306;28;20727;-87
2022/12/13 00:56:09;;;;;;;14.65;9.73;;;;;;;;;;5071411;28;20250;-87
2022/12/13 00:58:38;;;;;;;14.48;10.63;;;;;;;;;;5062056;28;20186;-87
2022/12/13 01:01:08;;;;;;;14.68;9.30;;;;;;;;;;5078012;28;20240;-88
2022/12/13 01:03:36;;;;;;;12.80;7.88;;;;;;;;;;5078847;28;20185;-86
2022/12/13 01:06:10;;;;;;;10.18;7.07;;;;;;;;;;5078872;28;20186;-85
2022/12/13 01:08:38;;;;;;;12.00;8.13;;;;;;;;;;5076012;28;20189;-88
2022/12/13 01:11:06;;;;;;;11.98;7.57;;;;;;;;;;5057463;28;20404;-87
2022/12/13 01:13:33;;;;;;;12.32;8.18;;;;;;;;;;5054914;28;20248;-88
2022/12/13 01:16:03;;;;;;;12.90;7.70;;;;;;;;;;5054355;28;20201;-87
2022/12/13 01:18:31;;;;;;;9.35;7.30;;;;;;;;;;5053642;28;20281;-87
2022/12/13 01:21:01;;;;;;;13.93;9.68;;;;;;;;;;5053718;28;20226;-87
2022/12/13 01:23:28;;;;;;;12.70;8.27;;;;;;;;;;5053826;28;20270;-87
2022/12/13 01:25:56;;;;;;;12.27;7.38;;;;;;;;;;5053751;28;20218;-87
2022/12/13 01:28:24;;;;;;;10.38;8.20;;;;;;;;;;5053174;28;20236;-87
2022/12/13 01:30:57;;;;;;;13.65;8.68;;;;;;;;;;5071564;28;20223;-87
2022/12/13 01:33:26;;;;;;;14.95;8.80;;;;;;;;;;5073421;28;20221;-87
2022/12/13 01:35:54;;;;;;;15.77;10.35;;;;;;;;;;5073056;28;20201;-88
2022/12/13 01:38:22;;;;;;;12.25;7.97;;;;;;;;;;5072915;28;20208;-87
2022/12/13 01:40:56;;;;;;;13.95;8.85;;;;;;;;;;5073084;28;20221;-87
2022/12/13 01:43:25;;;;;;;14.63;8.60;;;;;;;;;;5072955;28;20555;-87
2022/12/13 01:45:53;;;;;;;13.48;9.02;;;;;;;;;;5072834;28;20203;-87
2022/12/13 01:48:24;;;;;;;19.08;11.95;;;;;;;;;;5072704;28;20731;-87
2022/12/13 01:50:56;;;;;;;22.33;10.45;;;;;;;;;;5073045;28;20216;-87
2022/12/13 01:53:29;;;;;;;19.98;12.38;;;;;;;;;;5064493;28;20217;-88
2022/12/13 01:56:01;;;;;;;14.23;8.88;;;;;;;;;;5052895;28;20208;-88
2022/12/13 01:58:29;;;;;;;11.98;7.28;;;;;;;;;;5052623;28;20595;-87
2022/12/13 02:00:58;;;;;;;12.75;9.27;;;;;;;;;;5052545;28;20249;-86
2022/12/13 02:03:26;;;;;;;14.57;8.82;;;;;;;;;;5052685;28;20225;-88
2022/12/13 02:06:00;;;;;;;11.20;8.57;;;;;;;;;;5052630;28;20297;-87
2022/12/13 02:08:29;;;;;;;10.13;7.35;;;;;;;;;;5052363;28;20296;-87
2022/12/13 02:10:57;;;;;;;11.60;6.78;;;;;;;;;;5052673;28;20755;-87
2022/12/13 02:13:24;;;;;;;12.55;8.40;;;;;;;;;;5052710;28;20249;-87
2022/12/13 02:16:01;;;;;;;12.20;8.45;;;;;;;;;;5052279;28;20202;-87
2022/12/13 02:19:04;;;;;;;12.70;8.95;;;;;;;;;;5052424;28;20657;-87
2022/12/13 02:21:40;;;;;;;19.50;9.05;;;;;;;;;;5052679;28;20229;-88
2022/12/13 02:24:38;;;;;;;13.60;8.70;;;;;;;;;;5058060;28;20267;-87
2022/12/13 02:27:11;;;;;;;16.15;9.82;;;;;;;;;;5042281;28;20273;-87
2022/12/13 02:30:21;;;;;;;12.15;8.48;;;;;;;;;;5059653;28;20191;-87
2022/12/13 02:33:11;;;;;;;7.68;5.40;;;;;;;;;;5050018;28;20202;-87
2022/12/13 02:35:43;;;;;;;10.00;7.68;;;;;;;;;;5052611;28;20264;-88
2022/12/13 02:38:17;;;;;;;9.35;6.53;;;;;;;;;;5052582;28;20197;-87
2022/12/13 02:40:50;;;;;;;12.20;7.38;;;;;;;;;;5053867;28;20737;-87
2022/12/13 02:43:23;;;;;;;10.60;7.35;;;;;;;;;;5052964;28;20212;-87
2022/12/13 02:45:54;;;;;;;11.80;8.05;;;;;;;;;;5052211;28;20706;-88
2022/12/13 02:48:25;;;;;;;12.35;8.15;;;;;;;;;;5052226;28;20194;-88
2022/12/13 02:50:53;;;;;;;12.48;9.85;;;;;;;;;;5052366;28;20309;-87
2022/12/13 02:53:22;;;;;;;16.30;10.27;;;;;;;;;;5055458;28;20245;-87
2022/12/13 02:55:50;;;;;;;10.63;7.18;;;;;;;;;;5056127;28;20201;-88
2022/12/13 02:58:22;;;;;;;11.20;8.95;;;;;;;;;;5055677;28;20198;-88
2022/12/13 03:01:11;;;;;;;16.40;9.20;;;;;;;;;;5055871;28;20217;-87
2022/12/13 03:03:48;;;;;;;10.27;7.47;;;;;;;;;;5055899;28;20260;-87
2022/12/13 03:06:29;;;;;;;15.10;7.32;;;;;;;;;;5055687;28;20269;-88
2022/12/13 03:09:07;;;;;;;20.63;11.98;;;;;;;;;;5055300;28;20213;-87
2022/12/13 03:14:42;;;;;;;10.25;7.85;;;;;;;;;;5055678;28;20213;-87
2022/12/13 03:17:12;;;;;;;10.38;7.60;;;;;;;;;;5055449;28;20612;-87
2022/12/13 03:19:39;;;;;;;15.90;9.48;;;;;;;;;;5055586;28;20229;-87
2022/12/13 03:22:07;;;;;;;14.80;10.10;;;;;;;;;;5055301;28;20221;-87
2022/12/13 03:24:35;;;;;;;17.45;11.52;;;;;;;;;;5055438;28;20296;-88
2022/12/13 03:27:02;;;;;;;13.38;8.95;;;;;;;;;;5056228;28;20205;-87
2022/12/13 03:29:30;;;;;;;11.57;8.43;;;;;;;;;;5056047;28;20737;-88
2022/12/13 03:31:58;;;;;;;16.40;10.43;;;;;;;;;;5054988;28;20226;-88
2022/12/13 03:34:27;;;;;;;14.25;8.52;;;;;;;;;;5055072;28;20763;-87
2022/12/13 03:36:54;;;;;;;19.00;11.73;;;;;;;;;;5055145;28;20197;-88
2022/12/13 03:39:23;;;;;;;21.00;11.35;;;;;;;;;;5054774;28;20354;-88
2022/12/13 03:41:51;;;;;;;14.63;8.98;;;;;;;;;;5055019;28;20319;-88
2022/12/13 03:44:18;;;;;;;11.32;7.40;;;;;;;;;;5055047;28;20281;-87
2022/12/13 03:46:46;;;;;;;15.43;8.77;;;;;;;;;;5054695;28;20206;-87
2022/12/13 03:49:13;;;;;;;13.00;8.60;;;;;;;;;;5054703;28;20771;-87
2022/12/13 03:51:43;;;;;;;11.85;9.05;;;;;;;;;;5054797;28;20223;-87
2022/12/13 03:54:11;;;;;;;16.92;9.63;;;;;;;;;;5054652;28;20330;-87
2022/12/13 03:56:38;;;;;;;11.48;6.90;;;;;;;;;;5054846;28;20713;-87
2022/12/13 03:59:06;;;;;;;14.35;9.63;;;;;;;;;;5054689;28;20284;-88
2022/12/13 04:01:34;;;;;;;17.05;10.52;;;;;;;;;;5054607;28;20256;-87
2022/12/13 04:04:01;;;;;;;13.35;7.82;;;;;;;;;;5053607;28;20285;-87
2022/12/13 04:06:29;;;;;;;14.20;8.23;;;;;;;;;;5055622;28;20638;-87
2022/12/13 04:08:58;;;;;;;11.10;8.13;;;;;;;;;;5077396;28;20213;-86
2022/12/13 04:14:11;;;;;;;10.48;7.30;;;;;;;;;;5079340;28;20232;-87
2022/12/13 04:16:39;;;;;;;11.63;6.97;;;;;;;;;;5079335;28;20185;-86
2022/12/13 04:19:09;;;;;;;10.95;7.20;;;;;;;;;;5078970;28;20260;-86
2022/12/13 04:21:36;;;;;;;12.95;7.00;;;;;;;;;;5078710;28;20197;-87
2022/12/13 04:24:06;;;;;;;11.00;7.65;;;;;;;;;;5077844;28;20185;-88
2022/12/13 04:26:33;;;;;;;10.43;7.50;;;;;;;;;;5079047;28;20206;-87
2022/12/13 04:29:01;;;;;;;10.50;7.07;;;;;;;;;;5078666;28;20204;-87
2022/12/13 04:31:29;;;;;;;17.25;10.80;;;;;;;;;;5078073;28;20248;-86
2022/12/13 04:33:56;;;;;;;14.80;8.30;;;;;;;;;;5076480;28;20201;-87
2022/12/13 04:36:25;;;;;;;11.43;7.28;;;;;;;;;;5077639;28;20186;-86
2022/12/13 04:38:52;;;;;;;12.75;8.30;;;;;;;;;;5077268;28;20185;-88
2022/12/13 04:41:21;;;;;;;11.27;8.27;;;;;;;;;;5070033;28;20222;-87
2022/12/13 04:43:53;;;;;;;13.88;8.65;;;;;;;;;;5056897;28;20201;-86
2022/12/13 04:46:20;;;;;;;18.20;11.30;;;;;;;;;;5055675;28;20205;-87
2022/12/13 04:48:48;;;;;;;20.35;14.00;;;;;;;;;;5054591;28;20265;-87
2022/12/13 04:51:16;;;;;;;18.50;8.65;;;;;;;;;;5054142;28;20302;-87
2022/12/13 04:53:44;;;;;;;14.23;8.27;;;;;;;;;;5053845;28;20289;-87
2022/12/13 04:56:12;;;;;;;12.88;7.43;;;;;;;;;;5053559;28;20217;-86
2022/12/13 04:58:42;;;;;;;12.88;8.40;;;;;;;;;;5054932;28;20237;-87
2022/12/13 05:01:10;;;;;;;14.45;9.13;;;;;;;;;;5054032;28;20227;-87
2022/12/13 05:03:38;;;;;;;13.88;9.35;;;;;;;;;;5053934;28;20579;-86
2022/12/13 05:06:07;;;;;;;14.00;8.77;;;;;;;;;;5054448;28;20733;-86
2022/12/13 05:08:36;;;;;;;12.02;8.23;;;;;;;;;;5053481;28;20205;-87
2022/12/13 05:11:03;;;;;;;14.63;9.85;;;;;;;;;;5053685;28;20257;-87
2022/12/13 05:13:31;;;;;;;11.25;7.43;;;;;;;;;;5053415;28;20236;-87
2022/12/13 05:16:02;;;;;;;17.30;10.82;;;;;;;;;;5052495;28;20308;-87
2022/12/13 05:18:30;;;;;;;12.77;8.10;;;;;;;;;;5052910;28;20244;-87
2022/12/13 05:21:01;;;;;;;20.63;11.05;;;;;;;;;;5053887;28;20308;-87
2022/12/13 05:23:28;;;;;;;18.00;10.70;;;;;;;;;;5053353;28;20732;-87
2022/12/13 05:25:57;;;;;;;13.75;8.75;;;;;;;;;;5053367;28;20296;-88
2022/12/13 05:28:26;;;;;;;14.95;9.70;;;;;;;;;;5053108;28;20200;-87
2022/12/13 05:30:55;;;;;;;14.38;8.75;;;;;;;;;;5053655;28;20217;-87
2022/12/13 05:33:25;;;;;;;14.25;8.65;;;;;;;;;;5052613;28;20670;-87
2022/12/13 05:35:53;;;;;;;9.75;6.85;;;;;;;;;;5053087;28;20210;-87
2022/12/13 05:38:20;;;;;;;13.68;9.20;;;;;;;;;;5052968;28;20292;-87
2022/12/13 05:40:48;;;;;;;13.70;8.32;;;;;;;;;;5053522;28;20305;-87
2022/12/13 05:43:15;;;;;;;12.02;8.07;;;;;;;;;;5054813;28;20229;-81
2022/12/13 05:45:43;;;;;;;17.13;9.77;;;;;;;;;;5055087;28;20331;-81
2022/12/13 05:48:10;;;;;;;20.33;10.30;;;;;;;;;;5054886;28;20210;-81
2022/12/13 05:50:39;;;;;;;13.68;7.68;;;;;;;;;;5054621;28;20259;-82
2022/12/13 05:53:08;;;;;;;9.65;7.03;;;;;;;;;;5054906;28;20288;-81
2022/12/13 05:55:36;;;;;;;12.85;8.95;;;;;;;;;;5054827;28;20218;-80
2022/12/13 05:58:04;;;;;;;16.15;9.60;;;;;;;;;;5054272;28;20212;-81
2022/12/13 06:00:32;;;;;;;12.77;8.00;;;;;;;;;;5054333;28;20205;-81
2022/12/13 06:03:00;;;;;;;10.23;6.65;;;;;;;;;;5054329;28;20676;-80
2022/12/13 06:05:28;;;;;;;12.70;8.30;;;;;;;;;;5054544;28;20793;-80
2022/12/13 06:07:58;;;;;;;16.05;9.77;;;;;;;;;;5055304;28;20298;-80
2022/12/13 06:10:25;;;;;;;15.90;9.70;;;;;;;;;;5054739;28;20327;-81
2022/12/13 06:12:53;;;;;;;14.20;8.48;;;;;;;;;;5054383;28;20208;-82
2022/12/13 06:15:20;;;;;;;14.90;8.77;;;;;;;;;;5054053;28;20312;-81
2022/12/13 06:17:48;;;;;;;12.10;7.55;;;;;;;;;;5054485;28;20300;-82
2022/12/13 06:20:15;;;;;;;14.25;8.48;;;;;;;;;;5055036;28;20640;-81
2022/12/13 06:22:43;;;;;;;15.40;8.90;;;;;;;;;;5054270;28;20273;-81
2022/12/13 06:25:11;;;;;;;16.80;9.80;;;;;;;;;;5054488;28;20288;-81
2022/12/13 06:27:39;;;;;;;13.48;8.25;;;;;;;;;;5056690;28;20201;-81
2022/12/13 06:30:08;;;;;;;12.27;8.10;;;;;;;;;;5057777;28;20284;-81
2022/12/13 06:32:35;;;;;;;19.33;10.27;;;;;;;;;;5058316;28;20606;-82
2022/12/13 06:35:03;;;;;;;18.73;11.10;;;;;;;;;;5058551;28;20284;-81
2022/12/13 06:37:30;;;;;;;13.20;8.45;;;;;;;;;;5057885;28;20288;-81
2022/12/13 06:39:58;;;;;;;10.77;7.55;;;;;;;;;;5057604;28;20212;-81
2022/12/13 06:42:27;;;;;;;15.63;9.35;;;;;;;;;;5057438;28;20282;-81
2022/12/13 06:44:55;;;;;;;16.67;10.32;;;;;;;;;;5059389;28;20297;-83
2022/12/13 06:47:22;;;;;;;15.57;9.65;;;;;;;;;;5058319;28;20288;-82
2022/12/13 06:49:50;;;;;;;12.38;7.80;;;;;;;;;;5057941;28;20584;-82
2022/12/13 06:52:17;;;;;;;13.98;8.85;;;;;;;;;;5057644;28;20379;-81
2022/12/13 06:54:45;;;;;;;20.55;11.68;;;;;;;;;;5057239;28;20288;-80
2022/12/13 06:57:13;;;;;;;16.75;8.88;;;;;;;;;;5057474;28;20367;-81
2022/12/13 06:59:42;;;;;;;12.13;7.15;;;;;;;;;;5057230;28;20252;-81
2022/12/13 07:02:10;;;;;;;19.77;11.38;;;;;;;;;;5057925;28;20880;-81
2022/12/13 07:04:37;;;;;;;13.07;9.77;;;;;;;;;;5057680;28;20232;-81
2022/12/13 07:07:05;;;;;;;16.90;10.52;;;;;;;;;;5056358;28;20197;-81
2022/12/13 07:09:33;;;;;;;14.68;9.45;;;;;;;;;;5058712;28;20568;-81
2022/12/13 07:12:01;;;;;;;11.70;7.78;;;;;;;;;;5059038;28;20248;-81
2022/12/13 07:14:28;;;;;;;20.33;10.93;;;;;;;;;;5058916;28;20423;-81
2022/12/13 07:16:59;;;;;;;17.20;10.68;;;;;;;;;;5057677;28;20221;-81
2022/12/13 07:19:26;;;;;;;13.90;9.18;;;;;;;;;;5057177;28;20607;-80
2022/12/13 07:21:54;;;;;;;13.88;9.27;;;;;;;;;;5056173;28;20316;-81
2022/12/13 07:24:22;;;;;;;11.73;8.55;;;;;;;;;;5056478;28;20363;-81
2022/12/13 07:26:49;;;;;;;11.73;8.25;;;;;;;;;;5064753;28;20233;-79
2022/12/13 07:29:16;;;;;;;14.05;8.82;;;;;;;;;;5072307;28;20233;-78
2022/12/13 07:31:44;;;;;;;15.85;9.77;;;;;;;;;;5065847;28;20303;-78
2022/12/13 07:34:13;;;;;;;14.25;7.93;;;;;;;;;;5068620;28;20234;-80
2022/12/13 07:36:40;;;;;;;11.73;7.85;;;;;;;;;;5076471;28;20284;-81
2022/12/13 07:39:08;;;;;;;10.63;7.13;;;;;;;;;;5075961;28;20256;-80
2022/12/13 07:41:35;;;;;;;11.23;7.65;;;;;;;;;;5069698;28;20272;-82
2022/12/13 07:44:03;;;;;;;15.70;9.55;;;;;;;;;;5061413;28;20206;-81
2022/12/13 07:46:31;;;;;;;13.48;7.93;;;;;;;;;;5059008;28;20194;-82
2022/12/13 07:48:58;;;;;;;12.95;8.13;;;;;;;;;;5057382;28;20729;-82
2022/12/13 07:51:27;;;;;;;16.65;9.52;;;;;;;;;;5057399;28;20308;-82
2022/12/13 07:53:55;;;;;;;11.80;8.73;;;;;;;;;;5056947;28;20292;-82
2022/12/13 07:56:22;;;;;;;9.65;6.45;;;;;;;;;;5056291;28;20312;-80
2022/12/13 07:58:50;;;;;;;10.43;8.13;;;;;;;;;;5056023;28;20351;-81
2022/12/13 08:01:18;;;;;;;12.27;7.97;;;;;;;;;;5055876;28;20703;-82
2022/12/13 08:03:47;;;;;;;16.33;9.40;;;;;;;;;;5056170;28;20202;-82
2022/12/13 08:06:15;;;;;;;18.00;9.02;;;;;;;;;;5056440;28;20635;-81
2022/12/13 08:08:43;;;;;;;17.17;9.55;;;;;;;;;;5055965;28;20210;-82
2022/12/13 08:11:14;;;;;;;11.85;7.57;;;;;;;;;;5056537;28;20312;-81
2022/12/13 08:13:41;;;;;;;13.50;8.63;;;;;;;;;;5055983;28;20577;-82
2022/12/13 08:16:11;;;;;;;12.32;8.02;;;;;;;;;;5056034;28;20280;-81
2022/12/13 08:18:39;;;;;;;10.82;7.35;;;;;;;;;;5055745;28;20205;-82
2022/12/13 08:21:09;;;;;;;14.93;8.50;;;;;;;;;;5055586;28;20221;-81
2022/12/13 08:23:37;;;;;;;15.63;10.98;;;;;;;;;;5058470;28;20236;-82
2022/12/13 08:26:06;;;;;;;10.63;7.68;;;;;;;;;;5055150;28;20250;-82
2022/12/13 08:28:36;;;;;;;10.20;6.32;;;;;;;;;;5055624;28;20198;-81
2022/12/13 08:31:06;;;;;;;10.45;7.75;;;;;;;;;;5055544;28;20228;-82
2022/12/13 08:33:34;;;;;;;20.95;11.23;;;;;;;;;;5055534;28;20229;-81
2022/12/13 08:36:10;;;;;;;12.50;7.88;;;;;;;;;;5054853;28;20201;-81
2022/12/13 08:38:38;;;;;;;14.05;7.95;;;;;;;;;;5054787;28;20181;-81
2022/12/13 08:41:07;;;;;;;12.50;7.40;;;;;;;;;;5055220;28;20226;-80
2022/12/13 08:43:35;;;;;;;12.60;8.23;;;;;;;;;;5056147;28;20245;-82
2022/12/13 08:46:03;;;;;;;13.60;8.32;;;;;;;;;;5056270;28;20237;-81
2022/12/13 08:48:31;;;;;;;17.85;9.30;;;;;;;;;;5056277;28;20304;-81
2022/12/13 08:51:01;;;;;;;15.77;10.85;;;;;;;;;;5054960;28;20773;-81
2022/12/13 08:53:29;;;;;;;12.10;8.13;;;;;;;;;;5055310;28;20300;-81
2022/12/13 08:56:01;;;;;;;19.52;12.10;;;;;;;;;;5055281;28;20208;-81
2022/12/13 08:58:30;;;;;;;14.95;9.30;;;;;;;;;;5055791;28;20233;-82
2022/12/13 09:00:58;;;;;;;13.68;9.77;;;;;;;;;;5056279;28;20284;-83
2022/12/13 09:03:25;;;;;;;14.85;9.05;;;;;;;;;;5055097;28;20764;-82
2022/12/13 09:05:53;;;;;;;15.98;9.95;;;;;;;;;;5055688;28;20289;-83
2022/12/13 09:08:21;;;;;;;10.57;8.18;;;;;;;;;;5055696;28;20206;-83
2022/12/13 09:10:57;;;;;;;25.42;13.07;;;;;;;;;;5055484;28;20271;-83
2022/12/13 09:13:24;;;;;;;12.40;9.30;;;;;;;;;;5055010;28;20211;-83
2022/12/13 09:15:53;;;;;;;15.38;10.18;;;;;;;;;;5059541;28;20209;-83
2022/12/13 09:18:21;;;;;;;12.65;9.38;;;;;;;;;;5060167;28;20293;-82
2022/12/13 09:20:48;;;;;;;14.27;9.95;;;;;;;;;;5055196;28;20278;-82
2022/12/13 09:23:16;;;;;;;18.05;10.57;;;;;;;;;;5054754;28;20294;-81
2022/12/13 09:25:43;;;;;;;18.27;10.35;;;;;;;;;;5053905;28;20212;-81
2022/12/13 09:28:11;;;;;;;18.25;12.38;;;;;;;;;;5054032;28;20288;-80
2022/12/13 09:30:39;;;;;;;15.13;9.38;;;;;;;;;;5056031;28;20304;-80
2022/12/13 09:33:08;;;;;;;10.32;6.82;;;;;;;;;;5057807;28;20745;-81
2022/12/13 09:35:38;;;;;;;12.32;8.30;;;;;;;;;;5057310;28;20366;-81
2022/12/13 09:38:06;;;;;;;11.15;6.28;;;;;;;;;;5057738;28;20222;-81
2022/12/13 09:40:34;;;;;;;21.38;13.50;;;;;;;;;;5057064;28;20233;-81
2022/12/13 09:43:02;;;;;;;22.42;12.25;;;;;;;;;;5055323;28;20245;-81
2022/12/13 09:45:30;;;;;;;21.20;13.05;;;;;;;;;;5054474;28;20232;-81
2022/12/13 09:48:00;;;;;;;17.17;10.63;;;;;;;;;;5056082;28;20197;-79
2022/12/13 09:50:32;;;;;;;23.38;14.07;;;;;;;;;;5072999;28;20189;-80
2022/12/13 09:53:00;;;;;;;22.88;14.27;;;;;;;;;;5074572;28;20204;-80
2022/12/13 09:55:31;;;;;;;21.67;13.35;;;;;;;;;;5074050;28;20205;-80
2022/12/13 09:58:00;;;;;;;20.73;12.85;;;;;;;;;;5074027;28;20233;-80
2022/12/13 10:00:35;;;;;;;19.67;10.73;;;;;;;;;;5074969;28;20225;-80
2022/12/13 10:03:03;;;;;;;23.30;14.15;;;;;;;;;;5078208;28;20236;-80
2022/12/13 10:05:34;;;;;;;19.48;10.48;;;;;;;;;;5079924;28;20289;-80
2022/12/13 10:08:06;;;;;;;17.60;11.00;;;;;;;;;;5075076;28;20212;-81
2022/12/13 10:10:34;;;;;;;27.27;15.13;;;;;;;;;;5064935;28;20201;-80
2022/12/13 10:13:12;;;;;;;29.23;15.70;;;;;;;;;;5066111;28;20284;-80
2022/12/13 10:15:43;;;;;;;21.58;11.55;;;;;;;;;;5061094;28;20284;-81
2022/12/13 10:18:13;;;;;;;18.83;12.32;;;;;;;;;;5057983;28;20317;-81
2022/12/13 10:20:42;;;;;;;24.73;13.40;;;;;;;;;;5058226;28;20217;-82
2022/12/13 10:23:11;;;;;;;31.08;16.80;;;;;;;;;;5061011;28;20244;-80
2022/12/13 10:25:48;;;;;;;24.17;13.43;;;;;;;;;;5068023;28;20206;-81
2022/12/13 10:28:17;;;;;;;24.25;13.60;;;;;;;;;;5066701;28;20203;-80
2022/12/13 10:30:45;;;;;;;25.50;14.02;;;;;;;;;;5081653;28;20251;-81
2022/12/13 10:33:27;;;;;;;21.80;13.63;;;;;;;;;;5085880;28;20239;-81
2022/12/13 10:36:15;;;;;;;24.52;13.80;;;;;;;;;;5086648;28;20275;-81
2022/12/13 10:38:44;;;;;;;22.02;11.15;;;;;;;;;;5085640;28;20308;-82
2022/12/13 10:41:31;;;;;;;21.90;12.35;;;;;;;;;;5086334;28;20229;-82
2022/12/13 10:44:19;;;;;;;24.55;13.40;;;;;;;;;;5085973;28;20269;-81
2022/12/13 10:46:58;;;;;;;23.58;13.38;;;;;;;;;;5086340;28;20751;-81
2022/12/13 10:49:29;;;;;;;25.52;11.85;;;;;;;;;;5086749;28;20359;-81
2022/12/13 10:51:59;;;;;;;35.58;18.75;;;;;;;;;;5086824;28;20294;-81
2022/12/13 10:54:29;;;;;;;26.60;14.20;;;;;;;;;;5067710;28;20320;-80
2022/12/13 10:56:59;;;;;;;23.33;13.43;;;;;;;;;;5066972;28;20288;-81
2022/12/13 10:59:33;;;;;;;20.88;13.30;;;;;;;;;;5065730;28;20216;-81
2022/12/13 11:02:02;;;;;;;19.17;11.10;;;;;;;;;;5066777;28;20221;-81
2022/12/13 11:04:32;;;;;;;22.95;14.07;;;;;;;;;;5067153;28;20224;-80
2022/12/13 11:07:21;;;;;;;26.92;15.25;;;;;;;;;;5067160;28;20269;-81
2022/12/13 11:09:49;;;;;;;27.58;15.68;;;;;;;;;;5066107;28;20229;-81
2022/12/13 11:12:21;;;;;;;31.25;16.08;;;;;;;;;;5064948;28;20308;-82
2022/12/13 11:14:53;;;;;;;22.23;12.02;;;;;;;;;;5067266;28;20238;-82
2022/12/13 11:17:24;;;;;;;17.17;10.50;;;;;;;;;;5067534;28;20225;-81
2022/12/13 11:19:54;;;;;;;17.08;10.57;;;;;;;;;;5067346;28;20249;-81
2022/12/13 11:22:25;;;;;;;10.88;8.40;;;;;;;;;;5064870;28;20225;-80
2022/12/13 11:24:58;;;;;;;15.80;8.77;;;;;;;;;;5066268;28;20270;-81
2022/12/13 11:27:47;;;;;;;16.15;10.13;;;;;;;;;;5067695;28;20281;-80
2022/12/13 11:30:21;;;;;;;17.27;11.45;;;;;;;;;;5067675;28;20201;-81
2022/12/13 11:33:09;;;;;;;14.70;8.73;;;;;;;;;;5065970;28;20261;-82
2022/12/13 11:35:51;;;;;;;20.90;11.00;;;;;;;;;;5068189;28;20261;-82
2022/12/13 11:38:29;;;;;;;21.88;13.20;;;;;;;;;;5066884;28;20217;-81
2022/12/13 11:41:02;;;;;;;13.60;10.38;;;;;;;;;;5067747;28;20225;-82
2022/12/13 11:43:36;;;;;;;9.13;8.15;;;;;;;;;;5065826;28;20628;-80
2022/12/13 11:46:11;;;;;;;24.35;15.35;;;;;;;;;;5063083;28;20293;-81
2022/12/13 11:48:43;;;;;;;18.38;10.25;;;;;;;;;;5064940;28;20233;-80
2022/12/13 11:51:16;;;;;;;20.17;14.05;;;;;;;;;;5064611;28;20305;-82
2022/12/13 11:53:53;;;;;;;14.90;11.57;;;;;;;;;;5065781;28;20206;-80
2022/12/13 11:56:25;;;;;;;17.40;11.27;;;;;;;;;;5066220;28;20231;-81
2022/12/13 11:59:01;;;;;;;29.80;15.60;;;;;;;;;;5064933;28;20226;-81
2022/12/13 12:01:35;;;;;;;33.13;18.30;;;;;;;;;;5064182;28;20271;-80
2022/12/13 12:04:12;;;;;;;23.80;14.10;;;;;;;;;;5064615;28;20221;-81
2022/12/13 12:06:44;;;;;;;22.50;14.13;;;;;;;;;;5064649;28;20296;-81
2022/12/13 12:09:15;;;;;;;21.00;13.05;;;;;;;;;;5064774;28;20232;-82
2022/12/13 12:11:48;;;;;;;24.63;14.43;;;;;;;;;;5064501;28;20285;-82
2022/12/13 12:14:22;;;;;;;29.20;15.93;;;;;;;;;;5066205;28;20232;-82
2022/12/13 12:16:53;;;;;;;24.10;14.93;;;;;;;;;;5062955;28;20320;-82
2022/12/13 12:19:23;;;;;;;31.80;16.95;;;;;;;;;;5060673;28;20226;-82
2022/12/13 12:22:03;;;;;;;30.30;15.60;;;;;;;;;;5062325;28;20232;-82
2022/12/13 12:24:41;;;;;;;24.63;12.48;;;;;;;;;;5062044;28;20296;-81
2022/12/13 12:27:22;;;;;;;21.77;13.20;;;;;;;;;;5064227;28;20228;-81
2022/12/13 12:30:07;;;;;;;25.90;15.25;;;;;;;;;;5063593;28;20292;-82
2022/12/13 12:32:42;;;;;;;20.38;12.88;;;;;;;;;;5062284;28;20236;-81
2022/12/13 12:35:39;;;;;;;30.25;15.68;;;;;;;;;;5064374;28;20264;-82
2022/12/13 12:38:20;;;;;;;28.10;16.88;;;;;;;;;;5063352;28;20308;-81
2022/12/13 12:41:30;;;;;;;27.48;14.93;;;;;;;;;;5065036;28;20281;-81
2022/12/13 12:44:07;;;;;;;28.40;14.23;;;;;;;;;;5055325;28;20668;-81
2022/12/13 12:46:52;;;;;;;15.50;11.13;;;;;;;;;;5065236;28;20244;-81
2022/12/13 12:49:57;;;;;;;22.20;13.70;;;;;;;;;;5063634;28;20197;-80
2022/12/13 12:52:31;;;;;;;27.50;14.02;;;;;;;;;;5063997;28;20252;-82
2022/12/13 12:55:10;;;;;;;20.83;13.50;;;;;;;;;;5064453;28;20244;-81
2022/12/13 12:57:49;;;;;;;19.35;10.27;;;;;;;;;;5063059;28;20201;-81
2022/12/13 13:00:19;;;;;;;17.27;11.52;;;;;;;;;;5063820;28;20285;-81
2022/12/13 13:02:55;;;;;;;13.20;10.10;;;;;;;;;;5062108;28;20233;-82
2022/12/13 13:05:26;;;;;;;16.75;9.90;;;;;;;;;;5061903;28;20201;-81
2022/12/13 13:07:58;;;;;;;27.90;15.45;;;;;;;;;;5061102;28;20313;-82
2022/12/13 13:10:26;;;;;;;28.75;16.65;;;;;;;;;;5054593;28;20289;-81
2022/12/13 13:12:55;;;;;;;22.83;12.65;;;;;;;;;;5055417;28;20209;-81
2022/12/13 13:15:57;;;;;;;17.00;10.82;;;;;;;;;;5055625;28;20254;-81
2022/12/13 13:18:58;;;;;;;13.35;9.85;;;;;;;;;;5054856;28;20209;-81
2022/12/13 13:21:32;;;;;;;21.33;12.45;;;;;;;;;;4993373;28;20258;-82
2022/12/13 13:24:24;;;;;;;21.33;13.80;;;;;;;;;;4993303;28;20295;-81
2022/12/13 13:26:54;;;;;;;29.85;16.33;;;;;;;;;;5033741;28;20194;-81
2022/12/13 13:29:35;;;;;;;16.27;11.57;;;;;;;;;;5054693;28;20212;-81
2022/12/13 13:32:20;;;;;;;17.35;11.77;;;;;;;;;;5054953;28;20275;-82
2022/12/13 13:34:49;;;;;;;22.45;12.90;;;;;;;;;;5054622;28;20670;-82
2022/12/13 13:37:43;;;;;;;17.00;10.40;;;;;;;;;;5055000;28;20201;-82
2022/12/13 13:40:33;;;;;;;29.48;16.23;;;;;;;;;;5054868;28;20225;-80
2022/12/13 13:43:14;;;;;;;20.05;13.60;;;;;;;;;;5054661;28;20201;-82
2022/12/13 13:46:11;;;;;;;24.92;14.30;;;;;;;;;;5054869;28;20246;-82
2022/12/13 13:48:53;;;;;;;25.67;14.50;;;;;;;;;;5052479;28;20202;-81
2022/12/13 13:51:58;;;;;;;23.27;12.90;;;;;;;;;;5054336;28;20312;-81
2022/12/13 13:55:10;;;;;;;20.67;12.43;;;;;;;;;;5054300;28;20205;-81
2022/12/13 13:58:17;;;;;;;16.38;10.40;;;;;;;;;;5054057;28;20288;-81
2022/12/13 14:01:13;;;;;;;18.80;10.80;;;;;;;;;;5054169;28;20225;-81
2022/12/13 14:04:21;;;;;;;26.50;14.65;;;;;;;;;;5054482;28;20566;-81
2022/12/13 14:07:13;;;;;;;17.50;11.45;;;;;;;;;;5028937;28;20599;-81
2022/12/13 14:10:00;;;;;;;13.82;9.13;;;;;;;;;;5054235;28;20293;-81
2022/12/13 14:13:04;;;;;;;13.18;9.02;;;;;;;;;;5053692;28;20717;-81
2022/12/13 14:16:23;;;;;;;15.00;9.95;;;;;;;;;;5054717;28;20642;-82
2022/12/13 14:19:32;;;;;;;21.88;12.30;;;;;;;;;;5053989;28;20201;-81
2022/12/13 14:22:22;;;;;;;20.88;13.38;;;;;;;;;;5053771;28;20304;-81
2022/12/13 14:24:56;;;;;;;20.45;13.23;;;;;;;;;;5032878;28;20202;-81
2022/12/13 14:27:40;;;;;;;17.20;12.07;;;;;;;;;;5032288;28;20211;-81
2022/12/13 14:30:14;;;;;;;25.67;14.57;;;;;;;;;;5032035;28;20639;-81
2022/12/13 14:32:42;;;;;;;26.00;14.77;;;;;;;;;;5032388;28;20728;-81
2022/12/13 14:35:24;;;;;;;22.35;11.75;;;;;;;;;;5036354;28;20207;-81
2022/12/13 14:37:57;;;;;;;24.20;14.25;;;;;;;;;;5033782;28;20675;-81
2022/12/13 14:40:29;;;;;;;21.50;12.05;;;;;;;;;;5031766;28;20233;-80
2022/12/13 14:42:57;;;;;;;19.45;12.40;;;;;;;;;;5031785;28;20199;-81
2022/12/13 14:45:29;;;;;;;23.20;15.00;;;;;;;;;;5032007;28;20208;-81
2022/12/13 14:48:00;;;;;;;27.45;16.13;;;;;;;;;;5032737;28;20304;-81
2022/12/13 14:50:33;;;;;;;17.83;11.68;;;;;;;;;;5035766;28;20209;-81
2022/12/13 14:53:02;;;;;;;18.95;12.48;;;;;;;;;;5041177;28;20220;-81
2022/12/13 14:55:32;;;;;;;11.40;9.32;;;;;;;;;;5055408;28;20202;-81
2022/12/13 14:58:01;;;;;;;14.77;10.30;;;;;;;;;;5055084;28;20308;-80
2022/12/13 15:00:32;;;;;;;13.52;10.25;;;;;;;;;;5055430;28;20231;-81